Time;durP1;ratioP1;P1;durP2;ratioP2;P2;SDS_P1;SDS_P2;PMS_P1;PMS_P2;Temp;Humidity;BMP_temperature;BMP_pressure;BME280_temperature;BME280_humidity;BME280_pressure;Samples;Min_cycle;Max_cycle;Signal;HPM_P1;HPM_P2
2022/12/23 00:00:28;;;;;;;13.73;9.50;;;20.30;38.40;;;;;;5046065;28;20051;-72
2022/12/23 00:02:55;;;;;;;12.68;9.18;;;20.30;38.40;;;;;;5067388;28;20515;-72
2022/12/23 00:05:22;;;;;;;15.25;10.00;;;20.30;38.40;;;;;;5068445;28;20083;-72
2022/12/23 00:07:49;;;;;;;14.55;9.38;;;20.30;38.40;;;;;;5067350;28;20082;-72
2022/12/23 00:10:16;;;;;;;13.63;9.43;;;20.30;38.40;;;;;;5068358;28;20044;-72
2022/12/23 00:15:30;;;;;;;11.85;8.82;;;20.30;38.40;;;;;;5052814;28;20047;-73
2022/12/23 00:17:58;;;;;;;14.30;9.43;;;20.30;38.40;;;;;;5067734;28;20276;-72
2022/12/23 00:20:25;;;;;;;14.57;10.43;;;20.40;38.40;;;;;;5067121;28;20606;-73
2022/12/23 00:23:05;;;;;;;13.60;9.25;;;20.30;38.90;;;;;;5066593;28;20128;-72
2022/12/23 00:25:41;;;;;;;15.52;10.30;;;20.40;38.40;;;;;;5067617;28;20420;-73
2022/12/23 00:28:20;;;;;;;13.23;9.68;;;20.30;38.40;;;;;;5067548;28;20041;-72
2022/12/23 00:31:00;;;;;;;13.67;9.23;;;20.30;38.40;;;;;;5068128;28;20044;-72
2022/12/23 00:33:34;;;;;;;14.43;9.75;;;20.30;38.40;;;;;;5062278;28;20050;-73
2022/12/23 00:36:01;;;;;;;14.23;9.57;;;20.30;38.40;;;;;;5068540;28;20151;-72
2022/12/23 00:44:04;;;;;;;12.23;9.23;;;20.30;38.40;;;;;;5066613;28;20048;-72
2022/12/23 00:46:31;;;;;;;12.93;8.77;;;20.30;38.40;;;;;;5067415;28;20048;-72
2022/12/23 00:51:46;;;;;;;12.70;9.20;;;20.30;38.40;;;;;;5066951;28;20067;-72
2022/12/23 00:54:13;;;;;;;13.95;9.40;;;20.30;38.40;;;;;;5067637;28;20489;-73
2022/12/23 00:56:40;;;;;;;12.52;9.18;;;20.30;38.40;;;;;;5067117;28;20080;-72
2022/12/23 00:59:07;;;;;;;13.40;9.27;;;20.30;38.40;;;;;;5067248;28;20045;-72
2022/12/23 01:07:09;;;;;;;13.15;9.38;;;20.30;38.40;;;;;;5066814;28;20048;-72
2022/12/23 01:09:36;;;;;;;12.80;9.27;;;20.30;38.40;;;;;;5065292;28;20051;-73
2022/12/23 01:12:03;;;;;;;12.75;8.90;;;20.30;38.40;;;;;;5064179;28;20052;-72
2022/12/23 01:14:31;;;;;;;12.13;9.13;;;20.30;38.40;;;;;;5067131;28;20052;-73
2022/12/23 01:16:58;;;;;;;12.93;8.38;;;20.30;38.40;;;;;;5066805;28;20337;-72
2022/12/23 01:19:26;;;;;;;12.48;9.40;;;20.30;38.40;;;;;;5067350;28;20402;-72
2022/12/23 01:21:53;;;;;;;12.90;9.10;;;20.30;38.40;;;;;;5065766;28;20051;-72
2022/12/23 01:24:20;;;;;;;11.75;8.65;;;20.30;38.40;;;;;;5049462;28;20053;-72
2022/12/23 01:26:47;;;;;;;11.88;8.93;;;20.30;38.50;;;;;;5066556;28;20112;-72
2022/12/23 01:29:14;;;;;;;13.73;9.00;;;20.30;38.50;;;;;;5067033;28;20413;-72
2022/12/23 01:31:41;;;;;;;12.45;8.60;;;20.20;38.40;;;;;;5066620;28;20080;-72
2022/12/23 01:34:09;;;;;;;12.40;8.98;;;20.30;38.50;;;;;;5067449;28;20102;-72
2022/12/23 01:36:36;;;;;;;12.57;9.02;;;20.30;38.40;;;;;;5071219;28;20044;-73
2022/12/23 01:39:03;;;;;;;13.90;9.15;;;20.30;38.40;;;;;;5070752;28;20416;-72
2022/12/23 01:45:02;;;;;;;12.13;9.15;;;20.20;38.40;;;;;;5056079;28;20119;-72
2022/12/23 01:47:56;;;;;;;11.93;8.37;;;20.20;38.40;;;;;;5070503;28;20090;-73
2022/12/23 01:50:34;;;;;;;12.07;8.77;;;20.20;38.40;;;;;;5068215;28;20740;-72
2022/12/23 01:53:25;;;;;;;11.73;8.73;;;20.20;38.40;;;;;;5070178;28;20055;-72
2022/12/23 01:56:15;;;;;;;12.38;8.75;;;20.20;38.40;;;;;;5053062;28;20299;-72
2022/12/23 01:58:57;;;;;;;12.15;9.10;;;20.20;38.40;;;;;;5070197;28;20045;-72
2022/12/23 02:04:17;;;;;;;10.35;7.90;;;20.20;38.40;;;;;;5070023;28;20095;-73
2022/12/23 02:09:36;;;;;;;11.20;8.57;;;20.20;39.00;;;;;;5069600;28;20380;-72
2022/12/23 02:12:42;;;;;;;12.88;8.95;;;20.20;38.40;;;;;;5069170;28;20052;-72
2022/12/23 02:19:08;;;;;;;11.82;9.07;;;20.20;38.50;;;;;;5059541;28;20040;-72
2022/12/23 02:21:56;;;;;;;11.55;8.45;;;20.20;38.50;;;;;;5068526;28;20500;-72
2022/12/23 02:24:54;;;;;;;11.27;8.65;;;20.20;38.50;;;;;;5067716;28;20044;-72
2022/12/23 02:27:31;;;;;;;10.07;7.85;;;20.20;38.50;;;;;;5056808;28;20107;-73
2022/12/23 02:30:28;;;;;;;12.50;8.65;;;20.20;38.50;;;;;;5069918;28;20076;-72
2022/12/23 02:33:14;;;;;;;11.90;8.70;;;20.20;38.50;;;;;;5069190;28;20554;-72
2022/12/23 02:36:12;;;;;;;11.85;8.90;;;20.20;38.40;;;;;;5069566;28;20048;-72
2022/12/23 02:38:56;;;;;;;10.35;7.93;;;20.20;38.40;;;;;;5055749;28;20520;-73
2022/12/23 02:41:52;;;;;;;10.82;8.52;;;20.20;38.40;;;;;;5069630;28;20130;-72
2022/12/23 02:44:33;;;;;;;10.70;7.97;;;20.20;38.40;;;;;;5069354;28;20044;-72
2022/12/23 02:47:07;;;;;;;9.88;7.80;;;20.20;38.40;;;;;;5051472;28;20060;-72
2022/12/23 02:49:39;;;;;;;10.43;7.38;;;20.20;38.40;;;;;;5067703;28;20044;-72
2022/12/23 02:52:13;;;;;;;9.32;8.00;;;20.20;38.40;;;;;;5068689;28;20127;-72
2022/12/23 02:54:54;;;;;;;10.68;8.32;;;20.20;38.40;;;;;;5069183;28;20071;-72
2022/12/23 02:57:31;;;;;;;13.32;8.95;;;20.20;38.40;;;;;;5069273;28;20048;-72
2022/12/23 03:00:00;;;;;;;11.80;9.23;;;20.20;38.40;;;;;;5068788;28;20044;-72
2022/12/23 03:02:29;;;;;;;12.93;8.82;;;20.20;38.40;;;;;;5033729;28;20040;-72
2022/12/23 03:04:56;;;;;;;10.23;8.45;;;20.20;38.40;;;;;;5066656;28;20181;-72
2022/12/23 03:07:39;;;;;;;11.18;8.65;;;20.20;38.40;;;;;;5051198;28;20109;-72
2022/12/23 03:10:30;;;;;;;10.77;8.15;;;20.20;38.40;;;;;;5068664;28;20143;-72
2022/12/23 03:13:18;;;;;;;11.60;8.43;;;20.20;38.40;;;;;;5068925;28;20052;-72
2022/12/23 03:16:01;;;;;;;11.55;8.00;;;20.20;38.40;;;;;;5068581;28;20036;-72
2022/12/23 03:19:02;;;;;;;11.35;8.50;;;20.20;38.40;;;;;;5050756;28;20048;-72
2022/12/23 03:21:54;;;;;;;10.20;8.07;;;20.20;38.40;;;;;;5055141;28;20435;-72
2022/12/23 03:24:46;;;;;;;12.27;8.27;;;20.20;38.40;;;;;;5068371;28;20053;-73
2022/12/23 03:27:32;;;;;;;10.75;8.20;;;20.20;38.40;;;;;;5054316;28;20041;-73
2022/12/23 03:30:12;;;;;;;11.75;8.65;;;20.20;38.40;;;;;;5051473;28;20040;-73
2022/12/23 03:32:54;;;;;;;11.27;8.63;;;20.20;38.40;;;;;;5067611;28;20056;-73
2022/12/23 03:35:28;;;;;;;10.95;8.38;;;20.20;38.40;;;;;;5068596;28;20041;-72
2022/12/23 03:37:58;;;;;;;10.68;8.60;;;20.10;38.40;;;;;;5067849;28;20556;-73
2022/12/23 03:40:35;;;;;;;12.23;8.63;;;20.10;38.40;;;;;;5067305;28;20036;-73
2022/12/23 03:43:19;;;;;;;11.38;8.50;;;20.10;38.40;;;;;;5067827;28;20345;-72
2022/12/23 03:45:53;;;;;;;10.90;8.45;;;20.10;38.40;;;;;;5063485;28;20050;-72
2022/12/23 03:48:27;;;;;;;10.95;8.27;;;20.10;38.40;;;;;;5066847;28;20388;-72
2022/12/23 03:50:59;;;;;;;12.25;8.40;;;20.10;38.40;;;;;;5067915;28;20558;-72
2022/12/23 03:53:43;;;;;;;9.73;7.45;;;20.10;38.40;;;;;;5068528;28;20056;-72
2022/12/23 03:56:22;;;;;;;9.43;7.55;;;20.10;38.40;;;;;;5067890;28;20059;-72
2022/12/23 03:58:56;;;;;;;10.05;7.88;;;20.10;38.40;;;;;;5067548;28;20349;-72
2022/12/23 04:01:46;;;;;;;11.05;8.63;;;20.10;38.40;;;;;;5067917;28;20132;-72
2022/12/23 04:04:29;;;;;;;10.50;7.70;;;20.10;38.40;;;;;;5067886;28;20249;-72
2022/12/23 04:07:04;;;;;;;11.27;8.43;;;20.10;38.40;;;;;;5067962;28;20128;-72
2022/12/23 04:09:32;;;;;;;9.80;7.78;;;20.10;38.40;;;;;;5067268;28;20052;-73
2022/12/23 04:11:59;;;;;;;11.13;7.88;;;20.10;38.40;;;;;;5066651;28;20128;-73
2022/12/23 04:14:26;;;;;;;9.32;7.63;;;20.10;38.40;;;;;;5065540;28;20131;-73
2022/12/23 04:16:58;;;;;;;9.50;7.88;;;20.10;38.40;;;;;;5066687;28;20481;-72
2022/12/23 04:19:25;;;;;;;10.20;8.30;;;20.10;38.40;;;;;;5067356;28;20128;-73
2022/12/23 04:21:56;;;;;;;10.93;8.13;;;20.10;38.40;;;;;;5062009;28;20127;-73
2022/12/23 04:24:23;;;;;;;11.00;8.15;;;20.10;38.40;;;;;;5068191;28;20132;-72
2022/12/23 04:26:50;;;;;;;11.13;7.97;;;20.10;38.40;;;;;;5067171;28;20596;-72
2022/12/23 04:29:17;;;;;;;8.35;7.25;;;20.10;38.40;;;;;;5067708;28;20433;-72
2022/12/23 04:31:44;;;;;;;10.20;7.53;;;20.10;38.40;;;;;;5066816;28;20124;-72
2022/12/23 04:34:12;;;;;;;11.13;8.45;;;20.10;38.40;;;;;;5067758;28;20056;-72
2022/12/23 04:36:39;;;;;;;11.13;8.50;;;20.10;38.40;;;;;;5067069;28;20047;-72
2022/12/23 04:39:06;;;;;;;10.10;7.55;;;20.10;38.50;;;;;;5067786;28;20392;-73
2022/12/23 04:41:34;;;;;;;11.13;8.75;;;20.10;38.40;;;;;;5067302;28;20135;-72
2022/12/23 04:44:01;;;;;;;10.18;7.75;;;20.10;38.50;;;;;;5068246;28;20048;-72
2022/12/23 04:46:28;;;;;;;9.95;8.00;;;20.10;38.50;;;;;;5064580;28;20042;-72
2022/12/23 04:48:55;;;;;;;11.98;8.20;;;20.10;38.50;;;;;;5067325;28;20044;-72
2022/12/23 04:51:22;;;;;;;10.30;7.65;;;20.10;38.50;;;;;;5066974;28;20044;-73
2022/12/23 04:53:49;;;;;;;10.82;8.00;;;20.10;38.50;;;;;;5067621;28;20134;-72
2022/12/23 04:56:16;;;;;;;9.02;7.32;;;20.10;38.50;;;;;;5067334;28;20049;-72
2022/12/23 04:58:43;;;;;;;10.43;8.07;;;20.10;38.40;;;;;;5062408;28;20511;-72
2022/12/23 05:01:11;;;;;;;9.70;8.20;;;20.10;38.50;;;;;;5067599;28;20123;-72
2022/12/23 05:03:39;;;;;;;9.93;7.93;;;20.10;38.40;;;;;;5066876;28;20044;-72
2022/12/23 05:06:06;;;;;;;10.65;8.35;;;20.10;38.40;;;;;;5067873;28;20049;-72
2022/12/23 05:08:34;;;;;;;11.80;8.18;;;20.10;38.40;;;;;;5066595;28;20103;-72
2022/12/23 05:11:02;;;;;;;11.60;8.57;;;20.10;38.40;;;;;;5070833;28;20451;-72
2022/12/23 05:13:29;;;;;;;11.02;8.13;;;20.10;38.40;;;;;;5071332;28;20520;-73
2022/12/23 05:15:56;;;;;;;10.75;8.02;;;20.10;38.40;;;;;;5071014;28;20528;-72
2022/12/23 05:18:24;;;;;;;9.10;7.57;;;20.10;38.40;;;;;;5071101;28;20055;-73
2022/12/23 05:20:51;;;;;;;8.52;6.82;;;20.10;38.40;;;;;;5070194;28;20504;-72
2022/12/23 05:23:18;;;;;;;10.77;8.35;;;20.10;38.40;;;;;;5070816;28;20532;-73
2022/12/23 05:25:51;;;;;;;10.18;7.80;;;20.10;38.40;;;;;;5070827;28;20074;-72
2022/12/23 05:28:20;;;;;;;9.55;7.68;;;20.10;38.40;;;;;;5055636;28;20052;-72
2022/12/23 05:30:47;;;;;;;10.85;7.85;;;20.10;38.40;;;;;;5070972;28;20045;-72
2022/12/23 05:33:15;;;;;;;10.93;8.13;;;20.10;38.50;;;;;;5065514;28;20056;-73
2022/12/23 05:35:42;;;;;;;9.98;8.23;;;20.10;38.40;;;;;;5070841;28;20048;-72
2022/12/23 05:38:09;;;;;;;9.93;8.57;;;20.10;38.40;;;;;;5070552;28;20451;-72
2022/12/23 05:40:36;;;;;;;12.23;9.68;;;20.10;38.20;;;;;;5070378;28;20415;-72
2022/12/23 05:43:03;;;;;;;10.95;8.98;;;20.10;38.10;;;;;;5070680;28;20044;-72
2022/12/23 05:45:33;;;;;;;10.70;9.23;;;20.10;38.10;;;;;;5070087;28;20052;-72
2022/12/23 05:48:00;;;;;;;9.88;8.80;;;20.00;38.10;;;;;;5070830;28;20631;-72
2022/12/23 05:50:27;;;;;;;11.68;8.90;;;20.10;38.20;;;;;;5070216;28;20128;-73
2022/12/23 05:52:56;;;;;;;11.00;8.45;;;20.00;38.10;;;;;;5069684;28;20131;-71
2022/12/23 05:55:24;;;;;;;10.57;8.65;;;20.10;38.10;;;;;;5070408;28;20080;-72
2022/12/23 05:57:52;;;;;;;9.93;7.97;;;20.10;38.20;;;;;;5069705;28;20143;-72
2022/12/23 06:00:20;;;;;;;9.93;8.73;;;20.10;38.10;;;;;;5070288;28;20488;-72
2022/12/23 06:02:47;;;;;;;10.07;7.93;;;20.10;38.00;;;;;;5069239;28;20052;-72
2022/12/23 06:05:20;;;;;;;13.32;9.10;;;20.10;38.00;;;;;;5068934;28;20045;-72
2022/12/23 06:07:47;;;;;;;11.23;8.82;;;20.20;38.00;;;;;;5065477;28;20055;-72
2022/12/23 06:10:14;;;;;;;12.00;8.82;;;20.20;37.90;;;;;;5069215;28;20044;-71
2022/12/23 06:12:42;;;;;;;12.38;9.30;;;20.20;37.90;;;;;;5069711;28;20555;-72
2022/12/23 06:15:09;;;;;;;11.13;8.88;;;20.20;38.40;;;;;;5069614;28;20045;-72
2022/12/23 06:17:37;;;;;;;10.32;8.45;;;20.20;37.80;;;;;;5069346;28;20103;-72
2022/12/23 06:20:04;;;;;;;10.00;8.93;;;20.30;37.70;;;;;;5069683;28;20645;-72
2022/12/23 06:22:32;;;;;;;11.05;9.10;;;20.30;37.70;;;;;;5049554;28;20273;-72
2022/12/23 06:24:59;;;;;;;12.13;9.20;;;20.30;37.60;;;;;;5069606;28;20045;-72
2022/12/23 06:27:26;;;;;;;10.18;8.25;;;20.30;37.50;;;;;;5065028;28;20665;-72
2022/12/23 06:29:53;;;;;;;11.43;9.43;;;20.30;37.50;;;;;;5050107;28;20125;-72
2022/12/23 06:32:20;;;;;;;12.27;9.98;;;20.30;37.40;;;;;;5067136;28;20059;-72
2022/12/23 06:34:52;;;;;;;11.35;9.40;;;20.40;37.40;;;;;;5071629;28;20046;-72
2022/12/23 06:37:22;;;;;;;11.27;9.52;;;20.40;37.30;;;;;;5062667;28;20080;-72
2022/12/23 06:39:49;;;;;;;11.40;9.63;;;20.40;37.30;;;;;;5066778;28;20055;-72
2022/12/23 06:42:16;;;;;;;11.98;10.25;;;20.40;37.20;;;;;;5063916;28;20048;-72
2022/12/23 06:44:43;;;;;;;11.68;9.85;;;20.50;37.20;;;;;;5066078;28;20385;-71
2022/12/23 06:47:10;;;;;;;12.95;10.18;;;20.50;37.20;;;;;;5060594;28;20058;-72
2022/12/23 06:49:37;;;;;;;11.82;10.13;;;20.50;37.10;;;;;;5072636;28;20087;-72
2022/12/23 06:52:04;;;;;;;12.82;11.02;;;20.50;37.00;;;;;;5054444;28;20048;-72
2022/12/23 06:54:32;;;;;;;13.57;10.75;;;20.50;36.90;;;;;;5071139;28;20056;-72
2022/12/23 06:56:59;;;;;;;11.48;10.00;;;20.60;36.90;;;;;;5050258;28;20059;-71
2022/12/23 06:59:27;;;;;;;13.00;10.68;;;20.60;36.90;;;;;;5049057;28;20048;-72
2022/12/23 07:01:54;;;;;;;13.05;10.93;;;20.60;36.80;;;;;;5047187;28;20497;-72
2022/12/23 07:04:22;;;;;;;13.07;10.68;;;20.70;36.80;;;;;;5066771;28;20528;-72
2022/12/23 07:06:49;;;;;;;14.50;12.07;;;20.70;36.70;;;;;;5069111;28;20048;-72
2022/12/23 07:09:16;;;;;;;13.68;11.77;;;20.70;36.70;;;;;;5066760;28;20045;-71
2022/12/23 07:11:43;;;;;;;12.88;11.32;;;20.70;36.70;;;;;;5066034;28;20103;-72
2022/12/23 07:14:10;;;;;;;15.88;13.02;;;20.80;36.70;;;;;;5049349;28;20049;-71
2022/12/23 07:16:37;;;;;;;16.25;12.63;;;20.80;36.60;;;;;;5066535;28;20044;-72
2022/12/23 07:19:04;;;;;;;16.27;12.90;;;20.80;36.50;;;;;;5048981;28;20421;-71
2022/12/23 07:21:33;;;;;;;17.00;13.93;;;20.80;36.50;;;;;;5061534;28;20044;-72
2022/12/23 07:24:00;;;;;;;16.23;13.68;;;20.80;36.40;;;;;;5066903;28;20058;-72
2022/12/23 07:26:27;;;;;;;18.65;14.57;;;20.90;36.40;;;;;;5066503;28;20127;-72
2022/12/23 07:28:54;;;;;;;18.02;13.60;;;20.90;36.30;;;;;;5063581;28;20047;-71
2022/12/23 07:31:21;;;;;;;18.52;14.57;;;20.90;36.30;;;;;;5064934;28;20043;-71
2022/12/23 07:33:48;;;;;;;19.98;15.50;;;21.00;36.20;;;;;;5066794;28;20704;-72
2022/12/23 07:36:16;;;;;;;18.23;15.32;;;21.00;36.20;;;;;;5067800;28;20090;-71
2022/12/23 07:38:43;;;;;;;19.48;15.70;;;21.00;36.20;;;;;;5048478;28;20045;-71
2022/12/23 07:41:10;;;;;;;21.58;15.25;;;21.00;36.20;;;;;;5065126;28;20083;-71
2022/12/23 07:43:37;;;;;;;21.27;16.27;;;21.10;36.30;;;;;;5067169;28;20124;-72
2022/12/23 07:46:06;;;;;;;22.35;16.33;;;21.10;36.20;;;;;;5066339;28;20083;-71
2022/12/23 07:48:34;;;;;;;19.80;15.40;;;21.10;36.20;;;;;;5064202;28;20047;-72
2022/12/23 07:51:02;;;;;;;19.88;15.45;;;21.10;36.20;;;;;;5066253;28;20049;-72
2022/12/23 07:53:30;;;;;;;19.13;15.65;;;21.10;36.20;;;;;;5062338;28;20342;-71
2022/12/23 07:55:57;;;;;;;22.60;17.15;;;21.20;36.30;;;;;;5063761;28;20114;-72
2022/12/23 07:58:24;;;;;;;19.33;15.40;;;21.20;36.20;;;;;;5066290;28;20048;-71
2022/12/23 08:00:59;;;;;;;24.00;17.40;;;21.20;36.20;;;;;;5067246;28;20496;-72
2022/12/23 08:03:26;;;;;;;23.85;16.55;;;21.20;36.10;;;;;;5065728;28;20117;-72
2022/12/23 08:06:05;;;;;;;23.52;17.20;;;21.20;36.10;;;;;;5052325;28;20123;-72
2022/12/23 08:08:33;;;;;;;21.85;16.90;;;21.30;36.10;;;;;;5062883;28;20510;-72
2022/12/23 08:11:02;;;;;;;22.38;16.98;;;21.30;36.10;;;;;;5083574;28;20055;-71
2022/12/23 08:13:32;;;;;;;21.53;16.67;;;21.30;36.00;;;;;;5064893;28;20574;-71
2022/12/23 08:16:00;;;;;;;20.67;16.80;;;21.30;36.00;;;;;;5045726;28;20297;-71
2022/12/23 08:18:30;;;;;;;26.42;17.88;;;21.40;36.00;;;;;;5047879;28;20044;-71
2022/12/23 08:21:00;;;;;;;21.65;16.48;;;21.40;36.00;;;;;;5073356;28;20060;-72
2022/12/23 08:23:29;;;;;;;20.77;17.83;;;21.40;36.00;;;;;;5066357;28;20332;-72
2022/12/23 08:26:11;;;;;;;21.88;16.92;;;21.40;36.00;;;;;;5054488;28;20048;-72
2022/12/23 08:28:40;;;;;;;22.38;16.85;;;21.50;36.00;;;;;;5057605;28;20277;-71
2022/12/23 08:31:14;;;;;;;22.73;16.83;;;21.50;36.00;;;;;;5064428;28;20123;-72
2022/12/23 08:33:44;;;;;;;23.33;17.73;;;21.60;36.00;;;;;;5057280;28;20054;-72
2022/12/23 08:36:20;;;;;;;21.63;16.65;;;21.60;36.00;;;;;;5079028;28;20566;-71
2022/12/23 08:38:51;;;;;;;19.55;15.75;;;21.60;36.00;;;;;;5072500;28;20067;-72
2022/12/23 08:41:22;;;;;;;20.55;16.35;;;21.60;36.00;;;;;;5083878;28;20566;-72
2022/12/23 08:43:49;;;;;;;;;;;21.60;36.00;;;;;;5072079;28;20404;-72
2022/12/23 08:46:16;;;;;;;20.77;16.23;;;21.70;36.00;;;;;;5070775;28;19928;-72
2022/12/23 08:48:44;;;;;;;20.58;15.30;;;21.70;36.00;;;;;;5069181;28;20136;-73
2022/12/23 08:51:17;;;;;;;21.52;15.77;;;21.70;36.00;;;;;;5076082;28;20089;-72
2022/12/23 08:53:45;;;;;;;19.38;14.95;;;21.70;36.00;;;;;;5056236;28;20059;-72
2022/12/23 08:56:19;;;;;;;17.15;14.40;;;21.70;36.00;;;;;;5053142;28;20127;-72
2022/12/23 08:58:48;;;;;;;18.15;14.80;;;21.70;36.00;;;;;;5069765;28;20048;-72
2022/12/23 09:01:17;;;;;;;17.52;14.75;;;21.80;36.00;;;;;;5070682;28;20135;-72
2022/12/23 09:03:45;;;;;;;18.65;14.07;;;21.80;36.00;;;;;;5048855;28;20045;-72
2022/12/23 09:06:19;;;;;;;18.17;14.13;;;21.80;36.00;;;;;;5070768;28;20052;-72
2022/12/23 09:08:55;;;;;;;19.15;14.15;;;21.80;36.00;;;;;;5054983;28;20253;-72
2022/12/23 09:11:25;;;;;;;16.73;14.00;;;21.90;36.00;;;;;;5075626;28;20036;-72
2022/12/23 09:13:53;;;;;;;18.45;13.27;;;21.90;36.00;;;;;;5050263;28;20598;-72
2022/12/23 09:16:20;;;;;;;18.08;13.45;;;21.90;35.90;;;;;;5069766;28;20420;-72
2022/12/23 09:18:47;;;;;;;16.20;13.10;;;21.90;36.00;;;;;;5067526;28;20044;-74
2022/12/23 09:21:18;;;;;;;16.88;13.18;;;22.00;36.00;;;;;;5088884;28;20048;-72
2022/12/23 09:23:45;;;;;;;;;;;22.00;36.00;;;;;;5080782;28;20052;-72
2022/12/23 09:26:21;;;;;;;14.70;12.27;;;22.00;36.00;;;;;;5068324;28;20003;-72
2022/12/23 09:28:48;;;;;;;15.57;12.82;;;22.00;36.00;;;;;;5068447;28;20044;-72
2022/12/23 09:31:16;;;;;;;14.82;12.40;;;22.00;36.00;;;;;;5050837;28;20048;-71
2022/12/23 09:33:46;;;;;;;15.65;12.60;;;22.10;36.00;;;;;;5069371;28;20448;-72
2022/12/23 09:36:14;;;;;;;13.50;10.57;;;22.10;36.00;;;;;;5068645;28;20052;-72
2022/12/23 09:38:41;;;;;;;13.48;12.07;;;22.10;36.00;;;;;;5069325;28;20591;-72
2022/12/23 09:41:48;;;;;;;13.52;11.85;;;22.20;36.10;;;;;;5069427;28;20045;-72
2022/12/23 09:44:43;;;;;;;13.43;11.85;;;22.20;36.10;;;;;;5066281;28;20110;-72
2022/12/23 09:47:16;;;;;;;12.95;11.10;;;22.20;36.10;;;;;;5076672;28;20048;-72
2022/12/23 09:49:52;;;;;;;12.55;10.25;;;22.20;36.10;;;;;;5055460;28;20087;-72
2022/12/23 09:52:28;;;;;;;11.80;10.18;;;22.30;36.10;;;;;;5069236;28;20119;-72
2022/12/23 09:54:55;;;;;;;12.20;10.15;;;22.30;36.10;;;;;;5068056;28;20452;-72
2022/12/23 09:57:46;;;;;;;11.82;9.60;;;22.30;36.10;;;;;;5051975;28;20040;-71
2022/12/23 10:00:17;;;;;;;11.15;9.98;;;22.30;36.10;;;;;;5069724;28;20056;-73
2022/12/23 10:03:20;;;;;;;12.70;10.82;;;22.30;36.10;;;;;;5068250;28;20089;-72
2022/12/23 10:06:11;;;;;;;12.70;9.90;;;22.40;36.20;;;;;;5069894;28;20041;-72
2022/12/23 10:08:43;;;;;;;12.25;9.32;;;22.40;36.20;;;;;;5065728;28;20040;-72
2022/12/23 10:11:19;;;;;;;12.88;9.60;;;22.40;36.20;;;;;;5084597;28;20441;-72
2022/12/23 10:13:58;;;;;;;11.18;10.00;;;22.50;36.30;;;;;;5084560;28;20049;-72
2022/12/23 10:16:38;;;;;;;11.40;9.38;;;22.50;36.30;;;;;;5069641;28;20044;-72
2022/12/23 10:19:07;;;;;;;;;;;22.50;36.20;;;;;;5053838;28;20056;-72
2022/12/23 10:21:41;;;;;;;9.75;8.60;;;22.50;36.20;;;;;;5065422;28;20020;-72
2022/12/23 10:24:25;;;;;;;11.50;9.15;;;22.50;36.10;;;;;;5071687;28;20422;-72
2022/12/23 10:26:56;;;;;;;9.02;8.10;;;22.60;36.20;;;;;;5069191;28;20106;-72
2022/12/23 10:29:23;;;;;;;;;;;22.60;36.20;;;;;;5051131;28;20045;-72
2022/12/23 10:32:16;;;;;;;10.60;9.30;;;22.50;36.20;;;;;;5066186;28;20022;-72
2022/12/23 10:35:23;;;;;;;9.70;8.07;;;22.50;36.20;;;;;;5047213;28;20047;-71
2022/12/23 10:38:19;;;;;;;9.32;8.20;;;22.60;36.30;;;;;;5049686;28;20148;-72
2022/12/23 10:41:01;;;;;;;10.95;8.95;;;22.60;36.30;;;;;;5063485;28;20492;-72
2022/12/23 10:44:07;;;;;;;9.35;7.78;;;22.60;36.30;;;;;;5056202;28;20458;-72
2022/12/23 10:47:04;;;;;;;9.27;7.45;;;22.60;36.30;;;;;;5076499;28;20044;-72
2022/12/23 10:50:07;;;;;;;9.93;7.35;;;22.60;36.30;;;;;;5066644;28;20048;-71
2022/12/23 10:52:38;;;;;;;8.07;7.28;;;22.60;36.40;;;;;;5070802;28;20256;-72
2022/12/23 10:55:18;;;;;;;8.63;7.20;;;22.60;36.40;;;;;;5066323;28;20045;-73
2022/12/23 10:57:46;;;;;;;9.30;8.27;;;22.60;36.40;;;;;;5065095;28;20040;-72
2022/12/23 11:00:20;;;;;;;8.32;7.25;;;22.60;36.40;;;;;;5063372;28;20044;-72
2022/12/23 11:03:14;;;;;;;10.00;8.05;;;22.60;36.40;;;;;;5067172;28;20052;-72
2022/12/23 11:05:43;;;;;;;9.00;6.93;;;22.60;36.40;;;;;;5064693;28;20412;-72
2022/12/23 11:08:11;;;;;;;8.77;7.13;;;22.60;36.40;;;;;;5065680;28;20141;-72
2022/12/23 11:10:38;;;;;;;8.45;7.55;;;22.60;36.40;;;;;;5068212;28;20230;-72
2022/12/23 11:13:05;;;;;;;8.25;7.28;;;22.70;36.50;;;;;;5064624;28;20053;-72
2022/12/23 11:15:35;;;;;;;9.32;7.57;;;22.60;36.50;;;;;;5068526;28;20040;-72
2022/12/23 11:18:20;;;;;;;7.53;6.82;;;22.60;36.50;;;;;;5083904;28;20091;-72
2022/12/23 11:21:05;;;;;;;8.57;6.78;;;22.70;36.60;;;;;;5068928;28;20052;-72
2022/12/23 11:23:34;;;;;;;7.45;6.75;;;22.60;36.50;;;;;;5068318;28;20071;-72
2022/12/23 11:26:05;;;;;;;8.73;7.55;;;22.70;36.60;;;;;;5065345;28;20493;-72
2022/12/23 11:28:37;;;;;;;7.68;6.50;;;22.70;36.60;;;;;;5068507;28;20049;-72
2022/12/23 11:31:10;;;;;;;7.63;6.75;;;22.70;36.60;;;;;;5065494;28;20488;-72
2022/12/23 11:33:50;;;;;;;8.38;6.85;;;22.70;36.60;;;;;;5058404;28;20513;-72
2022/12/23 11:36:23;;;;;;;7.07;5.80;;;22.70;36.60;;;;;;5065388;28;20040;-73
2022/12/23 11:39:06;;;;;;;9.43;6.88;;;22.70;36.60;;;;;;5063334;28;20071;-72
2022/12/23 11:41:42;;;;;;;7.38;6.30;;;22.70;36.60;;;;;;5066262;28;20143;-72
2022/12/23 11:44:27;;;;;;;8.15;6.47;;;22.70;36.70;;;;;;5066152;28;21137;-72
2022/12/23 11:46:54;;;;;;;7.35;6.45;;;22.70;36.60;;;;;;5064927;28;20404;-72
2022/12/23 11:49:30;;;;;;;6.63;5.95;;;22.70;36.60;;;;;;5075517;28;20043;-72
2022/12/23 11:52:11;;;;;;;8.50;6.75;;;22.70;36.60;;;;;;5077486;28;20139;-72
2022/12/23 11:54:38;;;;;;;7.43;6.25;;;22.70;36.60;;;;;;5068132;28;20139;-72
2022/12/23 11:57:15;;;;;;;7.28;6.28;;;22.70;36.60;;;;;;5084257;28;20515;-71
2022/12/23 11:59:47;;;;;;;6.93;6.00;;;22.70;36.60;;;;;;5062901;28;20123;-72
2022/12/23 12:02:35;;;;;;;7.72;6.30;;;22.70;36.70;;;;;;5065652;28;20286;-72
2022/12/23 12:05:21;;;;;;;6.57;5.60;;;22.70;36.60;;;;;;5066566;28;20056;-72
2022/12/23 12:07:50;;;;;;;6.38;5.53;;;22.80;36.70;;;;;;5066910;28;20056;-72
2022/12/23 12:10:24;;;;;;;8.00;6.25;;;22.80;36.70;;;;;;5049003;28;20121;-73
2022/12/23 12:12:56;;;;;;;8.43;6.00;;;22.80;36.70;;;;;;5066288;28;20044;-72
2022/12/23 12:15:42;;;;;;;7.13;5.88;;;22.80;36.70;;;;;;5064941;28;20467;-72
2022/12/23 12:18:14;;;;;;;6.63;5.60;;;22.80;36.70;;;;;;5028529;28;20048;-72
2022/12/23 12:20:45;;;;;;;7.28;6.25;;;22.80;37.20;;;;;;5066532;28;20203;-72
2022/12/23 12:23:28;;;;;;;6.97;5.63;;;22.80;36.70;;;;;;5081536;28;20138;-72
2022/12/23 12:26:00;;;;;;;6.60;5.60;;;22.80;36.70;;;;;;5067676;28;20051;-72
2022/12/23 12:28:39;;;;;;;6.43;5.72;;;22.80;36.70;;;;;;5070123;28;20571;-72
2022/12/23 12:31:24;;;;;;;6.32;5.53;;;22.80;36.70;;;;;;5065346;28;20045;-72
2022/12/23 12:33:59;;;;;;;7.15;6.20;;;22.80;36.70;;;;;;5066261;28;20405;-72
2022/12/23 12:36:54;;;;;;;6.63;5.35;;;22.80;36.70;;;;;;5065980;28;20152;-72
2022/12/23 12:39:40;;;;;;;6.80;5.72;;;22.80;36.70;;;;;;5068595;28;20040;-72
2022/12/23 12:42:20;;;;;;;6.78;5.35;;;22.80;36.70;;;;;;5061102;28;20098;-72
2022/12/23 12:44:58;;;;;;;6.28;5.63;;;22.80;36.70;;;;;;5063866;28;20078;-72
2022/12/23 12:47:37;;;;;;;6.65;5.75;;;22.80;36.70;;;;;;5065976;28;20045;-72
2022/12/23 12:50:30;;;;;;;6.07;5.30;;;22.80;36.80;;;;;;5060441;28;20045;-72
2022/12/23 12:53:10;;;;;;;6.63;5.57;;;22.80;36.80;;;;;;5048137;28;20536;-72
2022/12/23 12:55:45;;;;;;;6.78;5.50;;;22.80;36.80;;;;;;5066150;28;20435;-72
2022/12/23 12:58:18;;;;;;;7.43;5.43;;;22.80;36.80;;;;;;5067805;28;20140;-72
2022/12/23 13:01:01;;;;;;;6.88;5.00;;;22.80;36.80;;;;;;5065789;28;20044;-72
2022/12/23 13:03:51;;;;;;;5.60;4.85;;;22.80;36.80;;;;;;5066016;28;20123;-72
2022/12/23 13:06:50;;;;;;;6.25;5.32;;;22.80;36.90;;;;;;5065484;28;20767;-72
2022/12/23 13:09:47;;;;;;;6.88;5.25;;;22.80;36.90;;;;;;5066530;28;20415;-72
2022/12/23 13:12:38;;;;;;;6.07;5.45;;;22.80;36.80;;;;;;5047079;28;20136;-72
2022/12/23 13:15:45;;;;;;;5.65;5.15;;;22.80;36.80;;;;;;5066482;28;20056;-72
2022/12/23 13:18:40;;;;;;;5.22;4.70;;;22.80;36.90;;;;;;5067338;28;20067;-72
2022/12/23 13:21:27;;;;;;;5.47;4.90;;;22.80;36.90;;;;;;5066421;28;20056;-72
2022/12/23 13:24:11;;;;;;;6.68;5.10;;;22.80;36.90;;;;;;5045374;28;20056;-72
2022/12/23 13:27:03;;;;;;;6.65;5.15;;;22.80;36.90;;;;;;5061361;28;20372;-72
2022/12/23 13:30:05;;;;;;;5.95;5.25;;;22.80;36.90;;;;;;5065511;28;20056;-73
2022/12/23 13:33:05;;;;;;;5.13;4.63;;;22.80;37.00;;;;;;5069337;28;20434;-72
2022/12/23 13:35:52;;;;;;;;;;;22.80;36.90;;;;;;5066071;28;20389;-72
2022/12/23 13:38:59;;;;;;;6.07;5.10;;;22.80;37.00;;;;;;5069303;28;19931;-72
2022/12/23 13:41:38;;;;;;;4.95;4.45;;;22.80;36.90;;;;;;5041601;28;20127;-72
2022/12/23 13:44:09;;;;;;;5.88;4.68;;;22.80;37.00;;;;;;5069272;28;20045;-72